sensor_id;sensor_type;location;lat;lon;timestamp;P1;durP1;ratioP1;P2;durP2;ratioP2
5127;SDS011;2582;48.770;9.190;2024-01-30T00:02:15;6.63;;;5.93;;
5127;SDS011;2582;48.770;9.190;2024-01-30T00:04:41;7.27;;;5.87;;
5127;SDS011;2582;48.770;9.190;2024-01-30T00:07:06;8.30;;;6.00;;
5127;SDS011;2582;48.770;9.190;2024-01-30T00:09:32;8.07;;;6.00;;
5127;SDS011;2582;48.770;9.190;2024-01-30T00:11:58;8.63;;;6.00;;
5127;SDS011;2582;48.770;9.190;2024-01-30T00:14:24;6.90;;;6.03;;
5127;SDS011;2582;48.770;9.190;2024-01-30T00:16:50;6.57;;;5.60;;
5127;SDS011;2582;48.770;9.190;2024-01-30T00:19:16;6.40;;;5.80;;
5127;SDS011;2582;48.770;9.190;2024-01-30T00:21:42;6.90;;;6.17;;
5127;SDS011;2582;48.770;9.190;2024-01-30T00:24:07;7.07;;;6.37;;
5127;SDS011;2582;48.770;9.190;2024-01-30T00:26:33;7.80;;;5.50;;
5127;SDS011;2582;48.770;9.190;2024-01-30T00:28:59;7.40;;;5.50;;
5127;SDS011;2582;48.770;9.190;2024-01-30T00:31:25;6.00;;;5.40;;
5127;SDS011;2582;48.770;9.190;2024-01-30T00:33:50;7.13;;;6.43;;
5127;SDS011;2582;48.770;9.190;2024-01-30T00:36:16;6.40;;;5.77;;
5127;SDS011;2582;48.770;9.190;2024-01-30T00:38:41;6.00;;;5.40;;
5127;SDS011;2582;48.770;9.190;2024-01-30T00:41:10;6.00;;;5.30;;
5127;SDS011;2582;48.770;9.190;2024-01-30T00:43:36;5.40;;;4.73;;
5127;SDS011;2582;48.770;9.190;2024-01-30T00:46:02;6.77;;;6.07;;
5127;SDS011;2582;48.770;9.190;2024-01-30T00:48:28;5.30;;;4.80;;
5127;SDS011;2582;48.770;9.190;2024-01-30T00:50:54;5.60;;;5.17;;
5127;SDS011;2582;48.770;9.190;2024-01-30T00:53:19;5.40;;;4.90;;
5127;SDS011;2582;48.770;9.190;2024-01-30T00:55:45;5.30;;;4.80;;
5127;SDS011;2582;48.770;9.190;2024-01-30T00:58:10;6.40;;;5.37;;
5127;SDS011;2582;48.770;9.190;2024-01-30T01:00:36;8.00;;;6.10;;
5127;SDS011;2582;48.770;9.190;2024-01-30T01:03:02;5.13;;;4.63;;
5127;SDS011;2582;48.770;9.190;2024-01-30T01:05:28;5.00;;;4.50;;
5127;SDS011;2582;48.770;9.190;2024-01-30T01:07:54;5.43;;;4.73;;
5127;SDS011;2582;48.770;9.190;2024-01-30T01:10:19;6.23;;;5.23;;
5127;SDS011;2582;48.770;9.190;2024-01-30T01:12:45;7.00;;;5.60;;
5127;SDS011;2582;48.770;9.190;2024-01-30T01:15:11;6.27;;;5.60;;
5127;SDS011;2582;48.770;9.190;2024-01-30T01:17:40;6.50;;;5.87;;
5127;SDS011;2582;48.770;9.190;2024-01-30T01:20:06;6.20;;;5.60;;
5127;SDS011;2582;48.770;9.190;2024-01-30T01:22:32;6.70;;;5.43;;
5127;SDS011;2582;48.770;9.190;2024-01-30T01:25:01;5.73;;;5.10;;
5127;SDS011;2582;48.770;9.190;2024-01-30T01:27:27;6.53;;;5.93;;
5127;SDS011;2582;48.770;9.190;2024-01-30T01:29:53;6.03;;;5.20;;
5127;SDS011;2582;48.770;9.190;2024-01-30T01:32:18;6.77;;;6.07;;
5127;SDS011;2582;48.770;9.190;2024-01-30T01:34:45;5.77;;;5.17;;
5127;SDS011;2582;48.770;9.190;2024-01-30T01:37:10;6.80;;;6.03;;
5127;SDS011;2582;48.770;9.190;2024-01-30T01:39:36;6.30;;;5.30;;
5127;SDS011;2582;48.770;9.190;2024-01-30T01:42:02;6.53;;;5.67;;
5127;SDS011;2582;48.770;9.190;2024-01-30T01:44:27;6.70;;;6.10;;
5127;SDS011;2582;48.770;9.190;2024-01-30T01:46:54;6.43;;;5.83;;
5127;SDS011;2582;48.770;9.190;2024-01-30T01:49:19;5.80;;;5.20;;
5127;SDS011;2582;48.770;9.190;2024-01-30T01:51:46;6.63;;;5.80;;
5127;SDS011;2582;48.770;9.190;2024-01-30T01:54:13;6.43;;;5.83;;
5127;SDS011;2582;48.770;9.190;2024-01-30T01:56:40;8.20;;;6.57;;
5127;SDS011;2582;48.770;9.190;2024-01-30T01:59:07;7.73;;;6.67;;
5127;SDS011;2582;48.770;9.190;2024-01-30T02:01:34;7.07;;;5.40;;
5127;SDS011;2582;48.770;9.190;2024-01-30T02:04:06;6.57;;;5.87;;
5127;SDS011;2582;48.770;9.190;2024-01-30T02:06:32;6.10;;;5.60;;
5127;SDS011;2582;48.770;9.190;2024-01-30T02:08:59;11.70;;;5.80;;
5127;SDS011;2582;48.770;9.190;2024-01-30T02:11:25;6.77;;;6.07;;
5127;SDS011;2582;48.770;9.190;2024-01-30T02:13:51;7.17;;;6.27;;
5127;SDS011;2582;48.770;9.190;2024-01-30T02:16:17;5.53;;;4.97;;
5127;SDS011;2582;48.770;9.190;2024-01-30T02:18:42;7.47;;;5.50;;
5127;SDS011;2582;48.770;9.190;2024-01-30T02:21:12;7.70;;;6.10;;
5127;SDS011;2582;48.770;9.190;2024-01-30T02:23:38;6.63;;;5.90;;
5127;SDS011;2582;48.770;9.190;2024-01-30T02:26:05;6.17;;;5.67;;
5127;SDS011;2582;48.770;9.190;2024-01-30T02:28:31;6.10;;;5.30;;
5127;SDS011;2582;48.770;9.190;2024-01-30T02:30:56;6.27;;;5.60;;
5127;SDS011;2582;48.770;9.190;2024-01-30T02:33:22;6.30;;;5.70;;
5127;SDS011;2582;48.770;9.190;2024-01-30T02:35:48;7.33;;;6.63;;
5127;SDS011;2582;48.770;9.190;2024-01-30T02:38:13;6.83;;;5.70;;
5127;SDS011;2582;48.770;9.190;2024-01-30T02:40:40;6.63;;;6.03;;
5127;SDS011;2582;48.770;9.190;2024-01-30T02:43:05;6.90;;;6.20;;
5127;SDS011;2582;48.770;9.190;2024-01-30T02:45:31;7.80;;;6.43;;
5127;SDS011;2582;48.770;9.190;2024-01-30T02:47:57;7.37;;;6.57;;
5127;SDS011;2582;48.770;9.190;2024-01-30T02:50:22;7.87;;;7.07;;
5127;SDS011;2582;48.770;9.190;2024-01-30T02:52:48;8.30;;;6.93;;
5127;SDS011;2582;48.770;9.190;2024-01-30T02:55:13;8.40;;;7.60;;
5127;SDS011;2582;48.770;9.190;2024-01-30T02:57:42;8.10;;;7.00;;
5127;SDS011;2582;48.770;9.190;2024-01-30T03:00:08;9.70;;;6.80;;
5127;SDS011;2582;48.770;9.190;2024-01-30T03:02:34;16.63;;;7.00;;
5127;SDS011;2582;48.770;9.190;2024-01-30T03:05:00;7.00;;;6.27;;
5127;SDS011;2582;48.770;9.190;2024-01-30T03:07:26;8.77;;;7.00;;
5127;SDS011;2582;48.770;9.190;2024-01-30T03:09:51;9.13;;;7.57;;
5127;SDS011;2582;48.770;9.190;2024-01-30T03:12:17;7.50;;;6.80;;
5127;SDS011;2582;48.770;9.190;2024-01-30T03:14:43;8.97;;;6.50;;
5127;SDS011;2582;48.770;9.190;2024-01-30T03:17:08;7.00;;;6.30;;
5127;SDS011;2582;48.770;9.190;2024-01-30T03:19:34;7.87;;;6.13;;
5127;SDS011;2582;48.770;9.190;2024-01-30T03:21:59;7.53;;;6.50;;
5127;SDS011;2582;48.770;9.190;2024-01-30T03:24:25;9.13;;;7.17;;
5127;SDS011;2582;48.770;9.190;2024-01-30T03:26:51;8.93;;;7.40;;
5127;SDS011;2582;48.770;9.190;2024-01-30T03:29:16;8.00;;;7.20;;
5127;SDS011;2582;48.770;9.190;2024-01-30T03:31:42;10.13;;;7.30;;
5127;SDS011;2582;48.770;9.190;2024-01-30T03:34:07;7.70;;;6.90;;
5127;SDS011;2582;48.770;9.190;2024-01-30T03:36:33;8.03;;;6.50;;
5127;SDS011;2582;48.770;9.190;2024-01-30T03:38:59;8.43;;;6.83;;
5127;SDS011;2582;48.770;9.190;2024-01-30T03:41:25;6.33;;;5.70;;
5127;SDS011;2582;48.770;9.190;2024-01-30T03:43:50;12.10;;;6.10;;
5127;SDS011;2582;48.770;9.190;2024-01-30T03:46:16;6.23;;;5.63;;
5127;SDS011;2582;48.770;9.190;2024-01-30T03:48:42;7.17;;;6.47;;
5127;SDS011;2582;48.770;9.190;2024-01-30T03:51:07;6.70;;;6.00;;
5127;SDS011;2582;48.770;9.190;2024-01-30T03:53:34;8.07;;;6.17;;
5127;SDS011;2582;48.770;9.190;2024-01-30T03:55:59;7.97;;;7.17;;
5127;SDS011;2582;48.770;9.190;2024-01-30T03:58:25;7.60;;;6.33;;
5127;SDS011;2582;48.770;9.190;2024-01-30T04:00:50;9.17;;;6.73;;
5127;SDS011;2582;48.770;9.190;2024-01-30T04:03:16;8.23;;;5.80;;
5127;SDS011;2582;48.770;9.190;2024-01-30T04:05:42;6.53;;;5.87;;
5127;SDS011;2582;48.770;9.190;2024-01-30T04:08:08;7.17;;;6.17;;
5127;SDS011;2582;48.770;9.190;2024-01-30T04:10:33;6.60;;;5.87;;
5127;SDS011;2582;48.770;9.190;2024-01-30T04:12:59;6.70;;;6.00;;
5127;SDS011;2582;48.770;9.190;2024-01-30T04:15:25;6.93;;;6.07;;
5127;SDS011;2582;48.770;9.190;2024-01-30T04:17:51;6.73;;;6.03;;
5127;SDS011;2582;48.770;9.190;2024-01-30T04:20:17;6.10;;;5.50;;
5127;SDS011;2582;48.770;9.190;2024-01-30T04:22:43;7.70;;;5.60;;
5127;SDS011;2582;48.770;9.190;2024-01-30T04:25:09;6.43;;;5.37;;
5127;SDS011;2582;48.770;9.190;2024-01-30T04:27:35;7.53;;;5.93;;
5127;SDS011;2582;48.770;9.190;2024-01-30T04:30:00;6.20;;;5.60;;
5127;SDS011;2582;48.770;9.190;2024-01-30T04:32:26;7.00;;;5.90;;
5127;SDS011;2582;48.770;9.190;2024-01-30T04:34:51;6.40;;;5.70;;
5127;SDS011;2582;48.770;9.190;2024-01-30T04:37:17;6.47;;;5.57;;
5127;SDS011;2582;48.770;9.190;2024-01-30T04:39:42;5.17;;;4.67;;
5127;SDS011;2582;48.770;9.190;2024-01-30T04:42:08;5.20;;;4.70;;
5127;SDS011;2582;48.770;9.190;2024-01-30T04:44:34;5.53;;;4.97;;
5127;SDS011;2582;48.770;9.190;2024-01-30T04:46:59;5.40;;;4.80;;
5127;SDS011;2582;48.770;9.190;2024-01-30T04:49:26;5.77;;;5.03;;
5127;SDS011;2582;48.770;9.190;2024-01-30T04:51:52;5.47;;;4.83;;
5127;SDS011;2582;48.770;9.190;2024-01-30T04:54:18;5.30;;;4.20;;
5127;SDS011;2582;48.770;9.190;2024-01-30T04:56:44;6.80;;;5.00;;
5127;SDS011;2582;48.770;9.190;2024-01-30T04:59:09;6.00;;;5.40;;
5127;SDS011;2582;48.770;9.190;2024-01-30T05:01:35;5.70;;;5.13;;
5127;SDS011;2582;48.770;9.190;2024-01-30T05:04:00;8.93;;;6.17;;
5127;SDS011;2582;48.770;9.190;2024-01-30T05:06:26;6.20;;;5.60;;
5127;SDS011;2582;48.770;9.190;2024-01-30T05:08:52;5.77;;;5.17;;
5127;SDS011;2582;48.770;9.190;2024-01-30T05:11:18;5.00;;;4.50;;
5127;SDS011;2582;48.770;9.190;2024-01-30T05:13:43;8.10;;;6.37;;
5127;SDS011;2582;48.770;9.190;2024-01-30T05:16:09;7.13;;;5.10;;
5127;SDS011;2582;48.770;9.190;2024-01-30T05:18:34;5.73;;;5.10;;
5127;SDS011;2582;48.770;9.190;2024-01-30T05:21:01;6.30;;;5.40;;
5127;SDS011;2582;48.770;9.190;2024-01-30T05:23:27;6.90;;;6.20;;
5127;SDS011;2582;48.770;9.190;2024-01-30T05:25:53;6.70;;;6.10;;
5127;SDS011;2582;48.770;9.190;2024-01-30T05:28:18;7.20;;;6.20;;
5127;SDS011;2582;48.770;9.190;2024-01-30T05:30:44;11.40;;;6.67;;
5127;SDS011;2582;48.770;9.190;2024-01-30T05:33:09;16.70;;;13.13;;
5127;SDS011;2582;48.770;9.190;2024-01-30T05:35:37;16.10;;;13.20;;
5127;SDS011;2582;48.770;9.190;2024-01-30T05:38:02;20.07;;;14.93;;
5127;SDS011;2582;48.770;9.190;2024-01-30T05:40:28;14.93;;;11.20;;
5127;SDS011;2582;48.770;9.190;2024-01-30T05:42:54;13.17;;;9.77;;
5127;SDS011;2582;48.770;9.190;2024-01-30T05:45:19;8.23;;;7.40;;
5127;SDS011;2582;48.770;9.190;2024-01-30T05:47:47;9.70;;;7.50;;
5127;SDS011;2582;48.770;9.190;2024-01-30T05:50:13;7.27;;;6.57;;
5127;SDS011;2582;48.770;9.190;2024-01-30T05:52:38;9.70;;;7.23;;
5127;SDS011;2582;48.770;9.190;2024-01-30T05:55:04;7.10;;;6.40;;
5127;SDS011;2582;48.770;9.190;2024-01-30T05:57:30;10.63;;;6.67;;
5127;SDS011;2582;48.770;9.190;2024-01-30T05:59:56;11.73;;;7.70;;
5127;SDS011;2582;48.770;9.190;2024-01-30T06:02:21;7.50;;;6.70;;
5127;SDS011;2582;48.770;9.190;2024-01-30T06:04:47;6.80;;;6.07;;
5127;SDS011;2582;48.770;9.190;2024-01-30T06:07:13;6.47;;;5.87;;
5127;SDS011;2582;48.770;9.190;2024-01-30T06:09:39;7.73;;;6.67;;
5127;SDS011;2582;48.770;9.190;2024-01-30T06:12:05;6.37;;;5.77;;
5127;SDS011;2582;48.770;9.190;2024-01-30T06:14:31;7.87;;;7.10;;
5127;SDS011;2582;48.770;9.190;2024-01-30T06:16:58;7.70;;;6.90;;
5127;SDS011;2582;48.770;9.190;2024-01-30T06:19:24;9.03;;;7.83;;
5127;SDS011;2582;48.770;9.190;2024-01-30T06:21:49;9.20;;;8.30;;
5127;SDS011;2582;48.770;9.190;2024-01-30T06:24:15;8.07;;;7.27;;
5127;SDS011;2582;48.770;9.190;2024-01-30T06:26:41;8.00;;;7.20;;
5127;SDS011;2582;48.770;9.190;2024-01-30T06:29:06;7.90;;;7.10;;
5127;SDS011;2582;48.770;9.190;2024-01-30T06:31:32;8.50;;;7.70;;
5127;SDS011;2582;48.770;9.190;2024-01-30T06:33:58;8.80;;;7.63;;
5127;SDS011;2582;48.770;9.190;2024-01-30T06:36:23;8.60;;;7.63;;
5127;SDS011;2582;48.770;9.190;2024-01-30T06:38:49;13.50;;;9.67;;
5127;SDS011;2582;48.770;9.190;2024-01-30T06:41:14;13.67;;;9.77;;
5127;SDS011;2582;48.770;9.190;2024-01-30T06:43:40;10.83;;;9.20;;
5127;SDS011;2582;48.770;9.190;2024-01-30T06:46:06;12.00;;;8.77;;
5127;SDS011;2582;48.770;9.190;2024-01-30T06:48:31;9.77;;;8.40;;
5127;SDS011;2582;48.770;9.190;2024-01-30T06:50:57;9.90;;;8.90;;
5127;SDS011;2582;48.770;9.190;2024-01-30T06:53:23;10.93;;;9.20;;
5127;SDS011;2582;48.770;9.190;2024-01-30T06:55:48;10.70;;;8.80;;
5127;SDS011;2582;48.770;9.190;2024-01-30T06:58:14;10.07;;;9.07;;
5127;SDS011;2582;48.770;9.190;2024-01-30T07:00:40;8.90;;;8.03;;
5127;SDS011;2582;48.770;9.190;2024-01-30T07:03:05;13.53;;;7.70;;
5127;SDS011;2582;48.770;9.190;2024-01-30T07:05:31;14.70;;;9.60;;
5127;SDS011;2582;48.770;9.190;2024-01-30T07:07:57;9.37;;;8.13;;
5127;SDS011;2582;48.770;9.190;2024-01-30T07:10:22;10.73;;;8.30;;
5127;SDS011;2582;48.770;9.190;2024-01-30T07:12:48;12.57;;;8.43;;
5127;SDS011;2582;48.770;9.190;2024-01-30T07:15:13;8.47;;;7.63;;
5127;SDS011;2582;48.770;9.190;2024-01-30T07:17:42;11.13;;;7.80;;
5127;SDS011;2582;48.770;9.190;2024-01-30T07:20:07;6.87;;;6.00;;
5127;SDS011;2582;48.770;9.190;2024-01-30T07:22:34;7.30;;;6.60;;
5127;SDS011;2582;48.770;9.190;2024-01-30T07:24:59;10.10;;;6.87;;
5127;SDS011;2582;48.770;9.190;2024-01-30T07:27:25;8.90;;;7.30;;
5127;SDS011;2582;48.770;9.190;2024-01-30T07:29:51;7.37;;;6.57;;
5127;SDS011;2582;48.770;9.190;2024-01-30T07:32:17;8.97;;;8.03;;
5127;SDS011;2582;48.770;9.190;2024-01-30T07:34:43;9.40;;;8.03;;
5127;SDS011;2582;48.770;9.190;2024-01-30T07:37:09;11.50;;;7.03;;
5127;SDS011;2582;48.770;9.190;2024-01-30T07:39:35;9.43;;;7.17;;
5127;SDS011;2582;48.770;9.190;2024-01-30T07:42:01;6.40;;;5.80;;
5127;SDS011;2582;48.770;9.190;2024-01-30T07:44:27;8.43;;;6.10;;
5127;SDS011;2582;48.770;9.190;2024-01-30T07:46:53;6.40;;;5.67;;
5127;SDS011;2582;48.770;9.190;2024-01-30T07:49:19;6.60;;;6.00;;
5127;SDS011;2582;48.770;9.190;2024-01-30T07:51:45;6.50;;;5.03;;
5127;SDS011;2582;48.770;9.190;2024-01-30T07:54:11;7.23;;;5.87;;
5127;SDS011;2582;48.770;9.190;2024-01-30T07:56:37;7.93;;;6.00;;
5127;SDS011;2582;48.770;9.190;2024-01-30T07:59:02;5.93;;;5.00;;
5127;SDS011;2582;48.770;9.190;2024-01-30T08:01:28;10.50;;;5.70;;
5127;SDS011;2582;48.770;9.190;2024-01-30T08:03:53;5.70;;;5.10;;
5127;SDS011;2582;48.770;9.190;2024-01-30T08:06:19;7.13;;;6.43;;
5127;SDS011;2582;48.770;9.190;2024-01-30T08:08:45;7.83;;;6.50;;
5127;SDS011;2582;48.770;9.190;2024-01-30T08:11:10;6.83;;;6.17;;
5127;SDS011;2582;48.770;9.190;2024-01-30T08:13:36;7.10;;;5.93;;
5127;SDS011;2582;48.770;9.190;2024-01-30T08:16:02;9.80;;;8.30;;
5127;SDS011;2582;48.770;9.190;2024-01-30T08:18:29;7.90;;;7.10;;
5127;SDS011;2582;48.770;9.190;2024-01-30T08:20:54;7.87;;;6.07;;
5127;SDS011;2582;48.770;9.190;2024-01-30T08:23:20;7.53;;;6.83;;
5127;SDS011;2582;48.770;9.190;2024-01-30T08:25:45;8.33;;;7.53;;
5127;SDS011;2582;48.770;9.190;2024-01-30T08:28:11;8.13;;;7.33;;
5127;SDS011;2582;48.770;9.190;2024-01-30T08:30:37;9.13;;;8.20;;
5127;SDS011;2582;48.770;9.190;2024-01-30T08:33:04;10.87;;;9.43;;
5127;SDS011;2582;48.770;9.190;2024-01-30T08:35:29;9.73;;;8.70;;
5127;SDS011;2582;48.770;9.190;2024-01-30T08:37:58;11.33;;;8.63;;
5127;SDS011;2582;48.770;9.190;2024-01-30T08:40:24;8.83;;;8.03;;
5127;SDS011;2582;48.770;9.190;2024-01-30T08:42:49;10.80;;;9.70;;
5127;SDS011;2582;48.770;9.190;2024-01-30T08:45:15;10.47;;;9.37;;
5127;SDS011;2582;48.770;9.190;2024-01-30T08:47:41;11.33;;;9.70;;
5127;SDS011;2582;48.770;9.190;2024-01-30T08:50:06;10.47;;;9.00;;
5127;SDS011;2582;48.770;9.190;2024-01-30T08:52:32;9.50;;;8.60;;
5127;SDS011;2582;48.770;9.190;2024-01-30T08:54:59;10.67;;;8.97;;
5127;SDS011;2582;48.770;9.190;2024-01-30T08:57:25;10.70;;;8.07;;
5127;SDS011;2582;48.770;9.190;2024-01-30T08:59:53;10.70;;;7.97;;
5127;SDS011;2582;48.770;9.190;2024-01-30T09:02:19;13.00;;;9.30;;
5127;SDS011;2582;48.770;9.190;2024-01-30T09:04:44;11.20;;;9.53;;
5127;SDS011;2582;48.770;9.190;2024-01-30T09:07:10;9.20;;;8.30;;
5127;SDS011;2582;48.770;9.190;2024-01-30T09:09:37;9.47;;;8.43;;
5127;SDS011;2582;48.770;9.190;2024-01-30T09:12:04;10.73;;;9.10;;
5127;SDS011;2582;48.770;9.190;2024-01-30T09:14:33;12.53;;;11.00;;
5127;SDS011;2582;48.770;9.190;2024-01-30T09:16:58;12.37;;;11.07;;
5127;SDS011;2582;48.770;9.190;2024-01-30T09:19:24;12.90;;;11.30;;
5127;SDS011;2582;48.770;9.190;2024-01-30T09:21:49;19.00;;;17.20;;
5127;SDS011;2582;48.770;9.190;2024-01-30T09:24:15;12.97;;;11.10;;
5127;SDS011;2582;48.770;9.190;2024-01-30T09:26:41;15.27;;;11.40;;
5127;SDS011;2582;48.770;9.190;2024-01-30T09:29:06;15.30;;;12.00;;
5127;SDS011;2582;48.770;9.190;2024-01-30T09:31:32;12.77;;;11.07;;
5127;SDS011;2582;48.770;9.190;2024-01-30T09:33:58;13.27;;;11.63;;
5127;SDS011;2582;48.770;9.190;2024-01-30T09:36:23;14.87;;;12.87;;
5127;SDS011;2582;48.770;9.190;2024-01-30T09:38:49;13.23;;;11.70;;
5127;SDS011;2582;48.770;9.190;2024-01-30T09:41:14;13.47;;;11.40;;
5127;SDS011;2582;48.770;9.190;2024-01-30T09:43:41;15.23;;;11.73;;
5127;SDS011;2582;48.770;9.190;2024-01-30T09:46:12;14.33;;;12.00;;
5127;SDS011;2582;48.770;9.190;2024-01-30T09:48:41;11.77;;;10.53;;
5127;SDS011;2582;48.770;9.190;2024-01-30T09:51:08;11.80;;;10.60;;
5127;SDS011;2582;48.770;9.190;2024-01-30T09:53:34;15.27;;;11.53;;
5127;SDS011;2582;48.770;9.190;2024-01-30T09:56:01;13.27;;;11.87;;
5127;SDS011;2582;48.770;9.190;2024-01-30T09:58:27;11.90;;;10.43;;
5127;SDS011;2582;48.770;9.190;2024-01-30T10:00:53;11.33;;;10.20;;
5127;SDS011;2582;48.770;9.190;2024-01-30T10:03:19;16.20;;;12.13;;
5127;SDS011;2582;48.770;9.190;2024-01-30T10:05:47;12.00;;;10.80;;
5127;SDS011;2582;48.770;9.190;2024-01-30T10:08:19;13.17;;;11.80;;
5127;SDS011;2582;48.770;9.190;2024-01-30T10:10:46;13.23;;;11.97;;
5127;SDS011;2582;48.770;9.190;2024-01-30T10:13:13;16.10;;;13.60;;
5127;SDS011;2582;48.770;9.190;2024-01-30T10:15:38;17.67;;;13.60;;
5127;SDS011;2582;48.770;9.190;2024-01-30T10:18:05;22.03;;;13.40;;
5127;SDS011;2582;48.770;9.190;2024-01-30T10:20:31;15.70;;;12.97;;
5127;SDS011;2582;48.770;9.190;2024-01-30T10:22:57;14.73;;;11.80;;
5127;SDS011;2582;48.770;9.190;2024-01-30T10:25:25;15.03;;;13.20;;
5127;SDS011;2582;48.770;9.190;2024-01-30T10:27:54;13.30;;;12.00;;
5127;SDS011;2582;48.770;9.190;2024-01-30T10:30:20;14.13;;;12.40;;
5127;SDS011;2582;48.770;9.190;2024-01-30T10:32:49;18.40;;;13.67;;
5127;SDS011;2582;48.770;9.190;2024-01-30T10:35:16;15.40;;;13.03;;
5127;SDS011;2582;48.770;9.190;2024-01-30T10:37:46;15.97;;;12.30;;
5127;SDS011;2582;48.770;9.190;2024-01-30T10:40:13;16.00;;;12.03;;
5127;SDS011;2582;48.770;9.190;2024-01-30T10:42:42;13.30;;;11.77;;
5127;SDS011;2582;48.770;9.190;2024-01-30T10:45:09;13.30;;;11.90;;
5127;SDS011;2582;48.770;9.190;2024-01-30T10:47:42;14.77;;;12.93;;
5127;SDS011;2582;48.770;9.190;2024-01-30T10:50:09;17.47;;;12.60;;
5127;SDS011;2582;48.770;9.190;2024-01-30T10:52:35;13.53;;;12.13;;
5127;SDS011;2582;48.770;9.190;2024-01-30T10:55:01;15.70;;;12.63;;
5127;SDS011;2582;48.770;9.190;2024-01-30T10:57:30;19.60;;;14.50;;
5127;SDS011;2582;48.770;9.190;2024-01-30T10:59:59;16.03;;;13.30;;
5127;SDS011;2582;48.770;9.190;2024-01-30T11:02:30;14.70;;;12.43;;
5127;SDS011;2582;48.770;9.190;2024-01-30T11:04:57;14.57;;;13.00;;
5127;SDS011;2582;48.770;9.190;2024-01-30T11:07:24;16.67;;;13.37;;
5127;SDS011;2582;48.770;9.190;2024-01-30T11:09:52;20.90;;;14.03;;
5127;SDS011;2582;48.770;9.190;2024-01-30T11:12:22;16.50;;;12.97;;
5127;SDS011;2582;48.770;9.190;2024-01-30T11:14:49;15.83;;;13.20;;
5127;SDS011;2582;48.770;9.190;2024-01-30T11:20:26;14.50;;;12.97;;
5127;SDS011;2582;48.770;9.190;2024-01-30T11:22:53;16.43;;;12.50;;
5127;SDS011;2582;48.770;9.190;2024-01-30T11:25:21;15.17;;;13.67;;
5127;SDS011;2582;48.770;9.190;2024-01-30T11:27:49;15.70;;;13.13;;
5127;SDS011;2582;48.770;9.190;2024-01-30T11:30:22;13.90;;;12.50;;
5127;SDS011;2582;48.770;9.190;2024-01-30T11:33:01;17.53;;;13.50;;
5127;SDS011;2582;48.770;9.190;2024-01-30T11:35:36;18.27;;;13.70;;
5127;SDS011;2582;48.770;9.190;2024-01-30T11:38:06;18.03;;;13.97;;
5127;SDS011;2582;48.770;9.190;2024-01-30T11:40:39;14.83;;;13.13;;
5127;SDS011;2582;48.770;9.190;2024-01-30T11:43:05;16.43;;;14.30;;
5127;SDS011;2582;48.770;9.190;2024-01-30T11:45:32;19.40;;;15.20;;
5127;SDS011;2582;48.770;9.190;2024-01-30T11:47:59;16.20;;;14.10;;
5127;SDS011;2582;48.770;9.190;2024-01-30T11:50:26;15.53;;;14.03;;
5127;SDS011;2582;48.770;9.190;2024-01-30T11:52:53;20.77;;;12.73;;
5127;SDS011;2582;48.770;9.190;2024-01-30T11:55:19;19.90;;;14.70;;
5127;SDS011;2582;48.770;9.190;2024-01-30T11:57:45;16.40;;;14.00;;
5127;SDS011;2582;48.770;9.190;2024-01-30T12:00:14;20.60;;;15.00;;
5127;SDS011;2582;48.770;9.190;2024-01-30T12:02:41;17.60;;;15.67;;
5127;SDS011;2582;48.770;9.190;2024-01-30T12:05:07;14.47;;;12.37;;
5127;SDS011;2582;48.770;9.190;2024-01-30T12:07:33;14.67;;;12.33;;
5127;SDS011;2582;48.770;9.190;2024-01-30T12:09:59;18.80;;;14.30;;
5127;SDS011;2582;48.770;9.190;2024-01-30T12:12:25;20.70;;;13.60;;
5127;SDS011;2582;48.770;9.190;2024-01-30T12:14:51;19.60;;;13.17;;
5127;SDS011;2582;48.770;9.190;2024-01-30T12:17:31;19.43;;;14.30;;
5127;SDS011;2582;48.770;9.190;2024-01-30T12:20:18;18.13;;;13.47;;
5127;SDS011;2582;48.770;9.190;2024-01-30T12:22:45;16.60;;;13.87;;
5127;SDS011;2582;48.770;9.190;2024-01-30T12:25:14;19.17;;;14.30;;
5127;SDS011;2582;48.770;9.190;2024-01-30T12:27:44;19.20;;;13.43;;
5127;SDS011;2582;48.770;9.190;2024-01-30T12:30:18;20.73;;;13.50;;
5127;SDS011;2582;48.770;9.190;2024-01-30T12:32:45;15.97;;;13.53;;
5127;SDS011;2582;48.770;9.190;2024-01-30T12:35:16;23.07;;;13.93;;
5127;SDS011;2582;48.770;9.190;2024-01-30T12:37:43;15.03;;;12.37;;
5127;SDS011;2582;48.770;9.190;2024-01-30T12:40:18;19.73;;;13.10;;
5127;SDS011;2582;48.770;9.190;2024-01-30T12:42:46;15.93;;;12.90;;
5127;SDS011;2582;48.770;9.190;2024-01-30T12:45:13;15.27;;;11.90;;
5127;SDS011;2582;48.770;9.190;2024-01-30T12:47:40;15.17;;;13.30;;
5127;SDS011;2582;48.770;9.190;2024-01-30T12:50:06;16.43;;;13.40;;
5127;SDS011;2582;48.770;9.190;2024-01-30T12:52:32;20.70;;;12.90;;
5127;SDS011;2582;48.770;9.190;2024-01-30T12:54:57;17.90;;;13.20;;
5127;SDS011;2582;48.770;9.190;2024-01-30T12:57:23;19.77;;;13.23;;
5127;SDS011;2582;48.770;9.190;2024-01-30T12:59:49;17.17;;;13.33;;
5127;SDS011;2582;48.770;9.190;2024-01-30T13:02:14;16.50;;;11.80;;
5127;SDS011;2582;48.770;9.190;2024-01-30T13:04:40;15.30;;;10.73;;
5127;SDS011;2582;48.770;9.190;2024-01-30T13:07:05;15.47;;;12.47;;
5127;SDS011;2582;48.770;9.190;2024-01-30T13:09:31;15.30;;;11.77;;
5127;SDS011;2582;48.770;9.190;2024-01-30T13:11:57;13.20;;;11.03;;
5127;SDS011;2582;48.770;9.190;2024-01-30T13:14:23;17.00;;;12.97;;
5127;SDS011;2582;48.770;9.190;2024-01-30T13:16:49;19.20;;;11.00;;
5127;SDS011;2582;48.770;9.190;2024-01-30T13:19:15;12.90;;;11.43;;
5127;SDS011;2582;48.770;9.190;2024-01-30T13:21:41;17.80;;;11.77;;
5127;SDS011;2582;48.770;9.190;2024-01-30T13:24:07;13.07;;;11.67;;
5127;SDS011;2582;48.770;9.190;2024-01-30T13:26:33;14.90;;;12.70;;
5127;SDS011;2582;48.770;9.190;2024-01-30T13:28:58;17.40;;;12.20;;
5127;SDS011;2582;48.770;9.190;2024-01-30T13:31:24;16.40;;;12.30;;
5127;SDS011;2582;48.770;9.190;2024-01-30T13:33:50;21.80;;;15.83;;
5127;SDS011;2582;48.770;9.190;2024-01-30T13:36:15;14.43;;;11.50;;
5127;SDS011;2582;48.770;9.190;2024-01-30T13:38:41;14.90;;;11.60;;
5127;SDS011;2582;48.770;9.190;2024-01-30T13:41:07;13.80;;;11.23;;
5127;SDS011;2582;48.770;9.190;2024-01-30T13:43:32;13.30;;;10.40;;
5127;SDS011;2582;48.770;9.190;2024-01-30T13:45:58;12.50;;;10.60;;
5127;SDS011;2582;48.770;9.190;2024-01-30T13:48:24;13.17;;;10.60;;
5127;SDS011;2582;48.770;9.190;2024-01-30T13:50:49;13.00;;;10.90;;
5127;SDS011;2582;48.770;9.190;2024-01-30T13:53:15;16.33;;;10.70;;
5127;SDS011;2582;48.770;9.190;2024-01-30T13:55:41;12.73;;;11.03;;
5127;SDS011;2582;48.770;9.190;2024-01-30T13:58:06;14.87;;;10.90;;
5127;SDS011;2582;48.770;9.190;2024-01-30T14:00:32;16.83;;;10.67;;
5127;SDS011;2582;48.770;9.190;2024-01-30T14:02:58;17.13;;;10.67;;
5127;SDS011;2582;48.770;9.190;2024-01-30T14:05:25;13.23;;;10.70;;
5127;SDS011;2582;48.770;9.190;2024-01-30T14:07:51;13.70;;;11.33;;
5127;SDS011;2582;48.770;9.190;2024-01-30T14:10:17;15.27;;;11.13;;
5127;SDS011;2582;48.770;9.190;2024-01-30T14:12:43;30.00;;;19.97;;
5127;SDS011;2582;48.770;9.190;2024-01-30T14:15:09;12.53;;;10.67;;
5127;SDS011;2582;48.770;9.190;2024-01-30T14:17:36;13.70;;;10.80;;
5127;SDS011;2582;48.770;9.190;2024-01-30T14:20:02;14.10;;;12.10;;
5127;SDS011;2582;48.770;9.190;2024-01-30T14:22:29;14.00;;;11.97;;
5127;SDS011;2582;48.770;9.190;2024-01-30T14:24:55;15.80;;;11.33;;
5127;SDS011;2582;48.770;9.190;2024-01-30T14:27:21;16.77;;;11.60;;
5127;SDS011;2582;48.770;9.190;2024-01-30T14:29:47;19.97;;;11.10;;
5127;SDS011;2582;48.770;9.190;2024-01-30T14:32:12;15.83;;;11.93;;
5127;SDS011;2582;48.770;9.190;2024-01-30T14:34:38;16.27;;;12.30;;
5127;SDS011;2582;48.770;9.190;2024-01-30T14:37:04;15.73;;;11.70;;
5127;SDS011;2582;48.770;9.190;2024-01-30T14:39:29;20.17;;;12.40;;
5127;SDS011;2582;48.770;9.190;2024-01-30T14:41:55;16.53;;;11.37;;
5127;SDS011;2582;48.770;9.190;2024-01-30T14:44:21;14.23;;;10.40;;
5127;SDS011;2582;48.770;9.190;2024-01-30T14:46:47;15.87;;;13.43;;
5127;SDS011;2582;48.770;9.190;2024-01-30T14:49:13;15.20;;;10.90;;
5127;SDS011;2582;48.770;9.190;2024-01-30T14:51:40;17.73;;;11.50;;
5127;SDS011;2582;48.770;9.190;2024-01-30T14:54:06;15.83;;;11.37;;
5127;SDS011;2582;48.770;9.190;2024-01-30T14:56:31;14.33;;;11.57;;
5127;SDS011;2582;48.770;9.190;2024-01-30T14:58:57;17.93;;;10.90;;
5127;SDS011;2582;48.770;9.190;2024-01-30T15:01:23;15.50;;;11.47;;